Time;durP1;ratioP1;P1;durP2;ratioP2;P2;SDS_P1;SDS_P2;PMS_P1;PMS_P2;Temp;Humidity;BMP_temperature;BMP_pressure;BME280_temperature;BME280_humidity;BME280_pressure;Samples;Min_cycle;Max_cycle;Signal;HPM_P1;HPM_P2
2023/11/18 00:00:46;;;;;;;5.50;4.30;;;;;;;4.78;90.76;100458.04;129599;1264;114984;-62
2023/11/18 00:04:15;;;;;;;5.50;4.30;;;;;;;4.79;91.04;100461.91;129854;1257;115277;-62
2023/11/18 00:07:17;;;;;;;5.30;4.30;;;;;;;4.78;91.06;100465.64;129416;1266;114846;-63
2023/11/18 00:10:19;;;;;;;6.00;4.30;;;;;;;4.79;91.17;100468.45;129532;1264;115174;-62
2023/11/18 00:13:22;;;;;;;6.10;4.70;;;;;;;4.80;91.10;100470.58;129672;1273;115233;-61
2023/11/18 00:16:24;;;;;;;5.40;4.50;;;;;;;4.81;91.19;100468.41;129495;1267;114734;-63
2023/11/18 00:19:26;;;;;;;4.90;4.30;;;;;;;4.80;91.37;100467.55;129531;1264;115223;-62
2023/11/18 00:22:29;;;;;;;5.70;4.30;;;;;;;4.80;91.26;100462.98;129512;1261;114832;-61
2023/11/18 00:25:36;;;;;;;6.70;4.20;;;;;;;4.78;91.38;100465.30;129732;1266;114743;-62
2023/11/18 00:28:38;;;;;;;5.00;3.70;;;;;;;4.77;91.37;100466.55;129613;1264;114718;-61
2023/11/18 00:31:40;;;;;;;4.90;4.30;;;;;;;4.77;91.66;100467.80;129557;1260;116316;-62
2023/11/18 00:34:42;;;;;;;8.60;4.30;;;;;;;4.78;91.64;100471.48;129511;1261;114800;-62
2023/11/18 00:37:44;;;;;;;5.80;4.00;;;;;;;4.79;91.57;100473.25;129599;1279;114804;-63
2023/11/18 00:40:47;;;;;;;5.90;4.50;;;;;;;4.78;91.53;100479.27;129490;1263;114699;-62
2023/11/18 00:43:49;;;;;;;5.80;4.70;;;;;;;4.76;91.60;100480.91;129631;1263;114781;-61
2023/11/18 00:46:51;;;;;;;5.60;4.90;;;;;;;4.77;91.81;100485.85;129615;1272;114807;-61
2023/11/18 00:49:54;;;;;;;10.30;4.80;;;;;;;4.77;91.78;100487.45;129730;1280;114741;-61
2023/11/18 00:52:56;;;;;;;6.50;4.70;;;;;;;4.75;91.73;100486.97;129559;1265;114783;-61
2023/11/18 00:55:58;;;;;;;7.10;4.60;;;;;;;4.74;91.77;100494.41;129467;1266;114646;-60
2023/11/18 00:59:03;;;;;;;7.70;5.30;;;;;;;4.72;91.94;100494.62;129161;1267;114752;-61
2023/11/18 01:02:05;;;;;;;7.20;5.00;;;;;;;4.74;92.06;100499.36;129665;1281;127439;-61
2023/11/18 01:05:10;;;;;;;7.70;4.60;;;;;;;4.74;91.96;100503.24;129336;1281;114811;-61
2023/11/18 01:08:13;;;;;;;5.70;4.40;;;;;;;4.74;92.22;100507.50;129649;1258;114693;-61
2023/11/18 01:11:18;;;;;;;5.40;4.50;;;;;;;4.74;92.31;100509.96;129726;1263;115619;-61
2023/11/18 01:14:23;;;;;;;6.00;3.70;;;;;;;4.74;92.41;100514.59;129300;1265;115328;-61
2023/11/18 01:17:25;;;;;;;5.40;4.20;;;;;;;4.74;92.39;100515.45;129541;1281;129412;-61
2023/11/18 01:20:28;;;;;;;5.60;4.10;;;;;;;4.75;92.62;100519.69;129806;1281;115151;-61
2023/11/18 01:23:30;;;;;;;7.00;3.80;;;;;;;4.75;92.63;100524.83;129436;1277;114731;-61
2023/11/18 01:26:34;;;;;;;6.30;4.00;;;;;;;4.75;92.75;100530.32;129680;1261;114712;-61
2023/11/18 01:29:36;;;;;;;6.50;4.50;;;;;;;4.76;92.66;100531.70;129745;1262;114850;-61
2023/11/18 01:32:42;;;;;;;6.00;4.20;;;;;;;4.77;92.90;100536.64;129512;1263;114756;-61
2023/11/18 01:35:47;;;;;;;5.30;4.20;;;;;;;4.77;92.80;100532.03;129679;1263;129013;-62
2023/11/18 01:38:55;;;;;;;6.80;4.50;;;;;;;4.77;92.85;100531.50;129611;1264;115192;-62
2023/11/18 01:41:59;;;;;;;4.00;3.60;;;;;;;4.77;92.67;100539.83;129642;1258;115090;-61
2023/11/18 01:45:03;;;;;;;5.50;3.90;;;;;;;4.78;92.88;100544.06;129294;1266;114911;-65
2023/11/18 01:48:05;;;;;;;5.50;4.20;;;;;;;4.79;93.18;100547.40;129553;1259;114716;-63
2023/11/18 01:51:10;;;;;;;5.60;3.40;;;;;;;4.79;93.05;100543.66;129757;1280;114811;-64
2023/11/18 01:54:18;;;;;;;4.90;3.40;;;;;;;4.78;92.76;100547.93;129647;1274;114700;-64
2023/11/18 01:57:21;;;;;;;4.50;3.40;;;;;;;4.76;92.73;100549.23;129788;1258;115850;-61
2023/11/18 02:00:23;;;;;;;6.40;2.60;;;;;;;4.75;92.70;100546.23;129805;1258;114721;-64
2023/11/18 02:03:27;;;;;;;3.90;2.70;;;;;;;4.71;92.77;100551.09;129547;1264;114759;-63
2023/11/18 02:06:29;;;;;;;5.30;3.10;;;;;;;4.70;93.02;100559.24;129575;1259;114810;-63
2023/11/18 02:09:31;;;;;;;4.90;2.60;;;;;;;4.69;92.66;100566.35;129935;1273;114715;-62
2023/11/18 02:12:49;;;;;;;6.50;2.50;;;;;;;4.66;92.80;100570.46;129549;1258;114719;-64
2023/11/18 02:15:57;;;;;;;3.60;3.00;;;;;;;4.64;93.00;100574.04;129310;1257;114868;-61
2023/11/18 02:19:00;;;;;;;4.00;2.90;;;;;;;4.63;92.97;100580.10;129460;1257;114903;-61
2023/11/18 02:22:04;;;;;;;3.80;2.60;;;;;;;4.63;93.04;100587.54;129469;1258;116385;-65
2023/11/18 02:25:10;;;;;;;3.80;3.00;;;;;;;4.62;93.18;100594.45;129625;1263;127623;-63
2023/11/18 02:28:12;;;;;;;4.70;3.70;;;;;;;4.61;92.88;100595.70;129581;1281;115493;-64
2023/11/18 02:31:24;;;;;;;4.20;3.60;;;;;;;4.61;93.14;100594.82;129653;1263;114701;-61
2023/11/18 02:34:29;;;;;;;4.40;3.60;;;;;;;4.60;93.12;100600.66;129485;1281;114773;-65
2023/11/18 02:37:33;;;;;;;4.70;3.50;;;;;;;4.59;92.95;100605.63;129243;1257;114966;-65
2023/11/18 02:40:38;;;;;;;5.20;3.80;;;;;;;4.58;93.28;100608.13;129572;1281;114727;-63
2023/11/18 02:43:41;;;;;;;4.70;3.60;;;;;;;4.59;93.08;100612.37;129719;1263;115154;-61
2023/11/18 02:46:44;;;;;;;6.40;4.00;;;;;;;4.60;93.11;100620.66;129461;1264;114918;-61
2023/11/18 02:49:54;;;;;;;4.30;3.90;;;;;;;4.61;93.38;100623.47;129656;1263;115238;-62
2023/11/18 02:52:55;;;;;;;5.50;4.00;;;;;;;4.63;93.36;100631.58;129201;1281;114900;-64
2023/11/18 02:56:02;;;;;;;4.00;3.50;;;;;;;4.64;93.51;100635.80;129404;1260;114826;-61
2023/11/18 02:59:05;;;;;;;3.90;3.50;;;;;;;4.66;93.45;100636.46;129280;1264;115244;-60
2023/11/18 03:02:07;;;;;;;4.00;3.40;;;;;;;4.66;93.40;100638.91;129559;1262;114738;-61
2023/11/18 03:05:11;;;;;;;3.80;3.10;;;;;;;4.66;93.24;100642.84;129437;1263;115096;-61
2023/11/18 03:08:13;;;;;;;4.80;3.90;;;;;;;4.65;93.41;100646.04;129609;1264;114768;-61
2023/11/18 03:11:15;;;;;;;4.90;3.50;;;;;;;4.66;93.16;100648.31;129796;1259;114732;-61
2023/11/18 03:14:19;;;;;;;5.30;4.10;;;;;;;4.65;93.32;100652.73;129423;1270;128045;-63
2023/11/18 03:17:21;;;;;;;3.50;3.10;;;;;;;4.67;93.27;100656.61;129549;1281;114874;-61
2023/11/18 03:20:25;;;;;;;4.30;3.60;;;;;;;4.65;93.27;100663.89;129593;1273;114774;-61
2023/11/18 03:23:28;;;;;;;5.00;3.80;;;;;;;4.65;93.44;100667.44;129622;1264;115404;-61
2023/11/18 03:26:32;;;;;;;5.30;3.80;;;;;;;4.65;93.26;100668.50;129608;1257;114827;-62
2023/11/18 03:29:35;;;;;;;4.30;3.40;;;;;;;4.64;93.30;100671.52;129574;1262;114863;-62
2023/11/18 03:32:39;;;;;;;5.80;3.50;;;;;;;4.64;93.58;100677.36;129716;1257;114700;-62
2023/11/18 03:35:41;;;;;;;3.90;3.40;;;;;;;4.64;93.46;100676.48;129975;1281;114712;-63
2023/11/18 03:38:44;;;;;;;3.50;3.20;;;;;;;4.65;93.57;100683.02;129803;1263;114706;-65
2023/11/18 03:41:46;;;;;;;4.80;3.60;;;;;;;4.66;93.65;100683.17;130014;1264;114831;-59
2023/11/18 03:44:48;;;;;;;3.90;3.30;;;;;;;4.68;93.73;100684.55;130087;1262;114738;-59
2023/11/18 03:47:51;;;;;;;4.40;3.20;;;;;;;4.68;93.47;100688.61;129457;1281;128527;-60
2023/11/18 03:50:53;;;;;;;3.60;2.90;;;;;;;4.65;93.42;100693.61;129504;1281;115212;-60
2023/11/18 03:53:56;;;;;;;3.60;3.30;;;;;;;4.62;93.26;100698.10;129489;1258;114724;-61
2023/11/18 03:56:59;;;;;;;4.00;2.30;;;;;;;4.61;93.37;100702.36;129617;1262;114738;-61
2023/11/18 04:00:02;;;;;;;2.50;2.30;;;;;;;4.59;93.26;100703.11;129643;1271;114631;-61
2023/11/18 04:03:06;;;;;;;2.60;2.40;;;;;;;4.55;93.26;100702.46;129445;1281;115039;-61
2023/11/18 04:06:09;;;;;;;2.50;2.10;;;;;;;4.53;93.18;100707.63;129709;1281;129062;-61
2023/11/18 04:09:12;;;;;;;5.60;2.90;;;;;;;4.47;92.96;100708.63;129603;1262;114775;-62
2023/11/18 04:12:16;;;;;;;4.10;3.00;;;;;;;4.41;92.81;100716.16;129912;1262;114785;-62
2023/11/18 04:15:18;;;;;;;4.80;3.90;;;;;;;4.37;93.00;100719.25;129463;1273;115322;-61
2023/11/18 04:18:21;;;;;;;5.50;4.10;;;;;;;4.33;93.07;100720.90;129472;1257;114837;-60
2023/11/18 04:21:23;;;;;;;5.80;4.80;;;;;;;4.31;93.13;100723.76;129606;1263;114828;-60
2023/11/18 04:24:25;;;;;;;6.00;5.00;;;;;;;4.28;93.10;100723.63;129520;1263;114708;-60
2023/11/18 04:27:27;;;;;;;9.00;5.80;;;;;;;4.25;93.02;100727.58;129401;1266;115170;-60
2023/11/18 04:30:29;;;;;;;5.90;5.20;;;;;;;4.23;93.19;100730.77;129727;1264;114766;-61
2023/11/18 04:33:32;;;;;;;9.50;6.10;;;;;;;4.21;93.02;100731.36;129789;1258;114876;-61
2023/11/18 04:36:35;;;;;;;8.80;6.50;;;;;;;4.19;93.24;100733.85;129389;1267;114932;-61
2023/11/18 04:39:37;;;;;;;9.50;6.70;;;;;;;4.15;93.12;100733.57;129481;1281;114757;-61
2023/11/18 04:42:40;;;;;;;7.50;6.20;;;;;;;4.12;92.94;100732.21;129470;1279;114716;-61
2023/11/18 04:45:44;;;;;;;9.70;7.60;;;;;;;4.07;92.97;100735.45;129647;1258;115312;-61
2023/11/18 04:48:46;;;;;;;11.10;8.20;;;;;;;4.05;93.14;100737.95;129276;1281;115261;-61
2023/11/18 04:51:48;;;;;;;9.00;7.40;;;;;;;4.06;93.26;100740.25;129443;1262;115160;-61
2023/11/18 04:54:51;;;;;;;7.80;6.10;;;;;;;4.06;93.25;100745.02;129595;1260;114780;-61
2023/11/18 04:57:54;;;;;;;8.10;5.90;;;;;;;4.04;93.13;100749.83;129438;1258;115094;-61
2023/11/18 05:00:56;;;;;;;8.20;6.00;;;;;;;4.02;93.07;100748.27;129548;1281;114805;-61
2023/11/18 05:03:59;;;;;;;10.10;6.80;;;;;;;3.99;93.09;100751.65;129453;1277;114728;-61
2023/11/18 05:07:01;;;;;;;8.70;6.80;;;;;;;3.98;93.24;100755.58;129450;1262;115097;-61
2023/11/18 05:10:04;;;;;;;10.70;8.30;;;;;;;3.96;93.14;100757.73;129521;1262;114713;-61
2023/11/18 05:13:06;;;;;;;9.60;7.20;;;;;;;3.94;93.17;100760.93;129524;1265;114838;-61
2023/11/18 05:16:12;;;;;;;11.70;9.40;;;;;;;3.92;93.27;100762.89;129542;1259;114773;-61
2023/11/18 05:19:14;;;;;;;12.30;9.00;;;;;;;3.92;93.37;100765.02;129223;1265;114835;-60
2023/11/18 05:22:16;;;;;;;15.50;10.20;;;;;;;3.93;93.52;100768.56;129409;1262;114783;-61
2023/11/18 05:25:19;;;;;;;13.10;10.00;;;;;;;3.94;93.53;100775.06;129405;1263;114702;-61
2023/11/18 05:28:21;;;;;;;14.60;11.10;;;;;;;3.96;93.69;100775.76;129408;1278;115148;-60
2023/11/18 05:31:23;;;;;;;15.00;11.10;;;;;;;3.98;93.85;100777.84;129384;1278;114762;-61
2023/11/18 05:34:26;;;;;;;18.20;12.50;;;;;;;3.99;93.75;100779.60;129483;1259;114785;-61
2023/11/18 05:37:29;;;;;;;17.60;12.60;;;;;;;3.99;93.69;100777.65;129457;1261;115216;-61
2023/11/18 05:40:32;;;;;;;15.40;11.10;;;;;;;3.98;93.77;100779.61;129313;1267;114905;-61
2023/11/18 05:43:40;;;;;;;15.10;11.10;;;;;;;3.97;93.81;100786.69;129656;1262;114802;-61
2023/11/18 05:46:43;;;;;;;16.10;10.80;;;;;;;3.97;93.72;100791.64;129418;1269;114694;-61
2023/11/18 05:49:45;;;;;;;16.00;11.10;;;;;;;3.98;93.74;100794.98;129382;1263;114681;-61
2023/11/18 05:52:48;;;;;;;14.90;10.90;;;;;;;3.96;93.70;100793.95;129375;1257;114797;-61
2023/11/18 05:55:50;;;;;;;17.70;12.60;;;;;;;3.93;93.43;100800.17;129577;1258;114790;-61
2023/11/18 05:58:55;;;;;;;18.20;11.80;;;;;;;3.88;93.39;100799.00;129536;1262;114757;-61
2023/11/18 06:01:57;;;;;;;20.80;12.80;;;;;;;3.83;93.11;100804.55;129407;1281;128399;-61
2023/11/18 06:04:59;;;;;;;21.30;13.40;;;;;;;3.80;93.23;100810.79;129512;1281;114785;-61
2023/11/18 06:08:01;;;;;;;22.50;14.10;;;;;;;3.78;93.31;100811.52;129674;1258;114733;-61
2023/11/18 06:11:12;;;;;;;19.10;12.80;;;;;;;3.79;93.51;100813.98;129426;1259;114780;-60
2023/11/18 06:14:16;;;;;;;19.60;13.50;;;;;;;3.80;93.60;100817.66;129557;1262;115271;-61
2023/11/18 06:17:18;;;;;;;21.20;13.90;;;;;;;3.81;93.74;100817.83;129472;1263;114643;-61
2023/11/18 06:20:23;;;;;;;23.80;15.20;;;;;;;3.83;93.63;100820.63;129466;1260;114786;-62
2023/11/18 06:23:28;;;;;;;26.00;17.10;;;;;;;3.82;93.63;100821.34;129478;1281;114824;-62
2023/11/18 06:26:33;;;;;;;27.70;17.30;;;;;;;3.84;93.89;100825.74;129434;1275;114713;-62
2023/11/18 06:29:39;;;;;;;22.70;16.70;;;;;;;3.85;93.81;100826.61;129475;1262;114779;-62
2023/11/18 06:32:41;;;;;;;27.30;16.70;;;;;;;3.86;93.66;100832.97;129436;1259;114722;-61
2023/11/18 06:35:44;;;;;;;27.90;18.30;;;;;;;3.85;93.64;100833.15;129454;1260;114815;-61
2023/11/18 06:38:49;;;;;;;26.40;17.40;;;;;;;3.88;93.80;100831.71;129623;1262;114777;-61
2023/11/18 06:41:53;;;;;;;25.40;15.90;;;;;;;3.90;93.58;100839.96;129269;1263;114704;-63
2023/11/18 06:44:55;;;;;;;25.00;16.60;;;;;;;3.90;93.80;100841.91;129329;1263;114755;-62
2023/11/18 06:47:58;;;;;;;25.10;16.40;;;;;;;3.91;93.72;100847.91;129536;1262;116411;-61
2023/11/18 06:51:01;;;;;;;24.20;15.30;;;;;;;3.91;93.44;100851.27;129591;1281;115186;-62
2023/11/18 06:54:13;;;;;;;23.30;15.10;;;;;;;3.90;93.38;100855.52;129590;1263;114724;-63
2023/11/18 06:57:15;;;;;;;26.30;16.30;;;;;;;3.91;93.37;100853.04;129408;1258;114832;-64
2023/11/18 07:00:18;;;;;;;25.40;16.90;;;;;;;3.91;93.36;100862.58;129749;1262;114757;-62
2023/11/18 07:03:21;;;;;;;25.60;15.70;;;;;;;3.92;93.22;100867.52;129548;1262;114850;-62
2023/11/18 07:06:26;;;;;;;22.80;15.50;;;;;;;3.93;93.49;100872.64;129623;1260;115155;-61
2023/11/18 07:09:29;;;;;;;22.60;16.10;;;;;;;3.94;93.38;100876.50;129593;1261;114725;-62
2023/11/18 07:12:33;;;;;;;22.10;15.70;;;;;;;3.97;93.39;100878.95;129787;1259;115099;-61
2023/11/18 07:15:35;;;;;;;24.30;16.40;;;;;;;4.00;93.38;100876.77;129907;1281;114770;-61
2023/11/18 07:18:38;;;;;;;22.00;15.70;;;;;;;4.04;93.23;100878.67;129917;1281;114707;-61
2023/11/18 07:21:40;;;;;;;24.60;16.70;;;;;;;4.08;93.27;100880.20;129709;1276;114725;-62
2023/11/18 07:24:43;;;;;;;22.90;14.60;;;;;;;4.14;93.22;100878.90;129957;1257;115334;-63
2023/11/18 07:27:45;;;;;;;25.20;16.10;;;;;;;4.15;93.19;100880.83;129408;1262;115227;-62
2023/11/18 07:30:47;;;;;;;25.70;15.60;;;;;;;4.20;93.30;100884.11;129578;1262;115215;-61
2023/11/18 07:33:50;;;;;;;22.90;15.30;;;;;;;4.25;93.47;100885.81;130005;1259;114729;-62
2023/11/18 07:36:55;;;;;;;22.80;15.70;;;;;;;4.28;93.05;100887.36;129918;1263;114693;-62
2023/11/18 07:40:00;;;;;;;23.50;15.30;;;;;;;4.32;93.20;100892.45;129515;1260;114706;-63
2023/11/18 07:43:02;;;;;;;22.40;16.10;;;;;;;4.37;93.39;100898.72;129503;1262;128826;-62
2023/11/18 07:46:07;;;;;;;23.70;16.60;;;;;;;4.43;93.28;100900.77;129431;1262;114770;-65
2023/11/18 07:49:09;;;;;;;29.50;18.50;;;;;;;4.51;93.32;100901.18;129715;1257;114715;-63
2023/11/18 07:52:12;;;;;;;28.00;17.80;;;;;;;4.57;93.06;100899.14;129479;1262;115247;-65
2023/11/18 07:55:15;;;;;;;27.30;18.00;;;;;;;4.64;93.02;100896.38;129556;1257;114786;-63
2023/11/18 07:58:20;;;;;;;26.70;16.10;;;;;;;4.69;93.12;100897.01;129269;1262;116376;-62
2023/11/18 08:01:22;;;;;;;;;;;;;;;4.75;92.98;100900.99;129278;1281;128462;-61
2023/11/18 08:04:25;;;;;;;24.00;16.80;;;;;;;4.78;92.83;100902.54;129538;1262;114796;-65
2023/11/18 08:07:28;;;;;;;24.00;15.60;;;;;;;4.82;92.82;100901.23;129506;1257;116260;-61
2023/11/18 08:10:32;;;;;;;23.20;16.30;;;;;;;4.87;92.72;100904.52;129567;1260;114731;-62
2023/11/18 08:13:35;;;;;;;26.00;16.50;;;;;;;4.91;92.71;100908.70;129495;1263;115196;-62
2023/11/18 08:16:37;;;;;;;23.70;16.10;;;;;;;4.94;92.63;100915.02;129556;1258;114648;-65
2023/11/18 08:19:39;;;;;;;21.10;15.50;;;;;;;4.96;92.48;100919.25;129682;1262;115704;-61
2023/11/18 08:22:45;;;;;;;23.50;16.70;;;;;;;5.00;92.47;100918.30;129364;1281;115156;-61
2023/11/18 08:25:47;;;;;;;24.60;17.40;;;;;;;5.05;92.43;100923.88;129541;1258;114805;-65
2023/11/18 08:28:51;;;;;;;25.20;17.70;;;;;;;5.13;92.78;100921.79;129656;1262;115132;-63
2023/11/18 08:31:53;;;;;;;27.80;17.60;;;;;;;5.22;92.52;100921.81;129351;1266;114789;-63
2023/11/18 08:34:56;;;;;;;24.70;16.50;;;;;;;5.28;92.44;100920.30;129628;1260;114718;-66
2023/11/18 08:37:59;;;;;;;26.40;17.50;;;;;;;5.39;92.43;100917.63;129570;1257;114838;-65
2023/11/18 08:41:01;;;;;;;25.70;17.80;;;;;;;5.49;92.35;100916.90;129520;1281;115394;-62
2023/11/18 08:44:03;;;;;;;25.80;18.00;;;;;;;5.57;92.18;100922.61;130112;1261;114685;-61
2023/11/18 08:47:08;;;;;;;28.50;17.00;;;;;;;5.65;92.17;100929.02;129786;1279;115075;-62
2023/11/18 08:50:12;;;;;;;27.60;17.30;;;;;;;5.69;91.77;100936.73;129542;1277;114722;-62
2023/11/18 08:53:17;;;;;;;23.50;16.80;;;;;;;5.71;91.87;100943.96;129655;1263;128728;-61
2023/11/18 08:56:20;;;;;;;25.70;16.40;;;;;;;5.74;91.64;100945.86;126843;1259;3630767;-65
2023/11/18 08:59:27;;;;;;;22.20;15.60;;;;;;;5.76;91.74;100947.05;129585;1260;115141;-62
2023/11/18 09:02:29;;;;;;;21.00;15.70;;;;;;;5.82;91.76;100953.33;129526;1259;115232;-65
2023/11/18 09:05:33;;;;;;;28.20;17.80;;;;;;;5.82;91.46;100962.72;129549;1262;114701;-63
2023/11/18 09:08:38;;;;;;;24.50;16.50;;;;;;;5.79;91.26;100968.82;129578;1260;114793;-61
2023/11/18 09:11:41;;;;;;;27.20;17.10;;;;;;;5.76;91.29;100974.02;129384;1281;128723;-62
2023/11/18 09:14:47;;;;;;;24.80;17.30;;;;;;;5.73;91.17;100982.92;129639;1281;115130;-64
2023/11/18 09:17:50;;;;;;;26.30;18.00;;;;;;;5.69;91.12;100986.20;129471;1281;114913;-65
2023/11/18 09:20:55;;;;;;;25.90;17.20;;;;;;;5.65;91.05;100990.34;129489;1258;114866;-62
2023/11/18 09:23:57;;;;;;;26.50;16.90;;;;;;;5.59;90.89;100991.33;129443;1281;115107;-64
2023/11/18 09:26:59;;;;;;;26.30;17.70;;;;;;;5.55;90.92;100995.64;129514;1257;114794;-62
2023/11/18 09:30:02;;;;;;;27.10;17.80;;;;;;;5.52;90.93;101000.84;129631;1260;115029;-66
2023/11/18 09:33:13;;;;;;;25.50;18.00;;;;;;;5.49;90.96;100998.22;129753;1260;115237;-62
2023/11/18 09:36:18;;;;;;;26.70;17.80;;;;;;;5.47;91.09;100999.84;129913;1262;115177;-61
2023/11/18 09:39:37;;;;;;;37.60;23.40;;;;;;;5.47;91.22;101001.80;129721;1263;114702;-66
2023/11/18 09:42:39;;;;;;;31.40;20.10;;;;;;;5.46;91.10;101000.05;129830;1262;114730;-62
2023/11/18 09:45:45;;;;;;;25.10;17.20;;;;;;;5.45;91.04;101000.44;129801;1262;115367;-66
2023/11/18 09:49:01;;;;;;;25.90;17.40;;;;;;;5.45;90.98;101004.15;129474;1281;115237;-66
2023/11/18 09:52:05;;;;;;;24.60;18.00;;;;;;;5.44;90.93;101005.21;129448;1260;114727;-61
2023/11/18 09:55:23;;;;;;;25.20;17.50;;;;;;;5.47;91.09;101004.65;129515;1260;114693;-62
2023/11/18 09:58:35;;;;;;;23.80;15.30;;;;;;;5.50;91.00;101007.60;129516;1262;115068;-62
2023/11/18 10:01:38;;;;;;;23.80;16.30;;;;;;;5.52;90.77;101008.80;129463;1281;128842;-62
2023/11/18 10:04:40;;;;;;;23.60;15.80;;;;;;;5.56;91.03;101009.63;129273;1281;115214;-61
2023/11/18 10:07:45;;;;;;;24.40;16.80;;;;;;;5.59;90.89;101017.72;129536;1260;114777;-63
2023/11/18 10:10:47;;;;;;;23.70;16.30;;;;;;;5.61;90.89;101016.27;129452;1260;115184;-62
2023/11/18 10:13:49;;;;;;;23.10;15.90;;;;;;;5.63;90.56;101022.59;129473;1258;114828;-62
2023/11/18 10:16:53;;;;;;;28.50;17.00;;;;;;;5.63;90.56;101023.16;129649;1260;114786;-62
2023/11/18 10:19:59;;;;;;;24.40;17.00;;;;;;;5.64;90.39;101029.86;129425;1281;128366;-62
2023/11/18 10:23:12;;;;;;;19.70;14.50;;;;;;;5.64;90.36;101026.14;129338;1278;116418;-62
2023/11/18 10:26:14;;;;;;;21.40;14.40;;;;;;;5.62;90.14;101029.91;129555;1260;114889;-62
2023/11/18 10:29:18;;;;;;;22.30;14.20;;;;;;;5.60;90.01;101035.79;129328;1262;114831;-63
2023/11/18 10:32:22;;;;;;;21.90;14.60;;;;;;;5.59;90.19;101039.88;129636;1265;114775;-61
2023/11/18 10:35:24;;;;;;;22.10;15.70;;;;;;;5.58;90.03;101042.90;129415;1267;128319;-67
2023/11/18 10:38:27;;;;;;;21.00;14.10;;;;;;;5.58;89.97;101040.95;129474;1281;114729;-63
2023/11/18 10:41:30;;;;;;;22.40;14.20;;;;;;;5.57;89.78;101042.56;129621;1258;114722;-73
2023/11/18 10:44:32;;;;;;;19.50;14.10;;;;;;;5.56;89.59;101051.08;129885;1262;114780;-67
2023/11/18 10:47:41;;;;;;;21.80;15.80;;;;;;;5.60;89.78;101049.07;129888;1260;115004;-72
2023/11/18 10:50:47;;;;;;;21.30;15.40;;;;;;;5.64;89.83;101050.59;129595;1267;114840;-77
2023/11/18 10:53:58;;;;;;;24.70;14.50;;;;;;;5.67;89.59;101052.48;129661;1265;128596;-72
2023/11/18 10:57:07;;;;;;;27.70;16.40;;;;;;;5.70;89.67;101052.61;129614;1276;115269;-74
2023/11/18 11:00:13;;;;;;;23.90;14.80;;;;;;;5.73;89.37;101053.45;129580;1260;114921;-76
2023/11/18 11:03:16;;;;;;;20.40;14.50;;;;;;;5.73;89.22;101056.30;129980;1281;115297;-80
2023/11/18 11:06:18;;;;;;;19.30;12.90;;;;;;;5.70;89.07;101056.70;129837;1262;115177;-74
2023/11/18 11:09:26;;;;;;;19.40;12.60;;;;;;;5.69;88.97;101061.16;129722;1265;114745;-77
2023/11/18 11:12:33;;;;;;;19.60;13.50;;;;;;;5.67;89.10;101064.73;129636;1267;115225;-77
2023/11/18 11:15:42;;;;;;;20.70;14.50;;;;;;;5.67;88.77;101068.27;129738;1265;114796;-78
2023/11/18 11:18:53;;;;;;;23.70;16.00;;;;;;;5.59;88.26;101071.23;129831;1265;114792;-70
2023/11/18 11:22:06;;;;;;;25.30;18.00;;;;;;;5.47;88.22;101073.20;129660;1261;114841;-74
2023/11/18 11:25:21;;;;;;;27.40;18.70;;;;;;;5.35;88.46;101079.94;129855;1262;128198;-75
2023/11/18 11:28:29;;;;;;;30.90;19.80;;;;;;;5.24;88.57;101083.83;129865;1259;115308;-69
2023/11/18 11:31:38;;;;;;;23.30;16.40;;;;;;;5.14;88.58;101094.25;129746;1259;114879;-64
2023/11/18 11:34:51;;;;;;;28.40;17.60;;;;;;;4.98;88.31;101098.34;129846;1265;114795;-67
2023/11/18 11:38:02;;;;;;;31.50;20.40;;;;;;;4.85;88.62;101099.42;129667;1267;114965;-68
2023/11/18 11:41:05;;;;;;;29.50;18.20;;;;;;;4.79;88.78;101100.91;130063;1262;126821;-78
2023/11/18 11:44:07;;;;;;;26.90;16.80;;;;;;;4.78;89.01;101100.39;129872;1265;114815;-80
2023/11/18 11:47:15;;;;;;;24.10;15.00;;;;;;;4.81;89.67;101103.88;129894;1262;114734;-77
2023/11/18 11:50:31;;;;;;;35.50;21.90;;;;;;;4.84;89.39;101101.73;130229;1259;114721;-79
2023/11/18 11:53:45;;;;;;;27.20;16.70;;;;;;;4.88;89.35;101097.96;129996;1262;114707;-73
2023/11/18 11:57:01;;;;;;;20.40;14.20;;;;;;;4.87;88.77;101097.98;129783;1275;128480;-72
2023/11/18 12:00:14;;;;;;;24.30;16.60;;;;;;;4.85;88.78;101099.77;129455;1262;115225;-79
2023/11/18 12:03:18;;;;;;;22.70;15.50;;;;;;;4.86;88.82;101096.58;129634;1268;114716;-82
2023/11/18 12:06:23;;;;;;;24.90;14.80;;;;;;;4.92;89.09;101096.13;129969;1259;114789;-79
2023/11/18 12:09:32;;;;;;;20.60;14.60;;;;;;;5.03;89.22;101102.17;129675;1267;114824;-79
2023/11/18 12:12:34;;;;;;;21.70;14.80;;;;;;;5.10;88.87;101096.79;129958;1259;129128;-80
2023/11/18 12:15:54;;;;;;;39.50;21.10;;;;;;;5.14;88.78;101094.42;129884;1262;114798;-79
2023/11/18 12:19:30;;;;;;;28.70;16.60;;;;;;;5.19;88.80;101092.93;129977;1262;114694;-78
2023/11/18 12:23:13;;;;;;;24.90;15.90;;;;;;;5.28;88.97;101100.42;129337;1270;114707;-70
2023/11/18 12:26:38;;;;;;;24.80;14.70;;;;;;;5.34;88.71;101105.63;128944;1274;114876;-77
2023/11/18 12:29:43;;;;;;;25.60;16.10;;;;;;;5.32;88.29;101104.09;129221;1271;127819;-75
2023/11/18 12:33:09;;;;;;;21.80;14.80;;;;;;;5.31;88.25;101104.09;129172;1275;115184;-65
2023/11/18 12:36:14;;;;;;;;;;;;;;;5.35;88.41;101104.03;129199;1268;115299;-73
2023/11/18 12:39:33;;;;;;;26.50;18.50;;;;;;;5.36;88.40;101102.77;129189;1268;115451;-76
2023/11/18 12:42:58;;;;;;;30.60;19.40;;;;;;;5.34;87.82;101101.39;129084;1268;114864;-75
2023/11/18 12:46:19;;;;;;;16.20;11.10;;;;;;;5.26;87.97;101100.27;129281;1267;126584;-78
2023/11/18 12:49:26;;;;;;;23.00;15.40;;;;;;;5.23;87.71;101111.46;129090;1270;116359;-79
2023/11/18 12:52:28;;;;;;;23.30;15.60;;;;;;;5.22;87.92;101115.36;129118;1268;114967;-67
2023/11/18 12:55:31;;;;;;;26.00;15.40;;;;;;;5.22;87.86;101108.82;129161;1268;115347;-80
2023/11/18 12:58:33;;;;;;;22.50;16.00;;;;;;;5.24;87.60;101108.79;129168;1273;115374;-69
2023/11/18 13:01:36;;;;;;;32.20;19.30;;;;;;;5.28;87.63;101105.20;129930;1272;115159;-67
2023/11/18 13:04:40;;;;;;;35.30;21.40;;;;;;;5.31;87.67;101111.34;129813;1260;127543;-65
2023/11/18 13:07:43;;;;;;;31.30;19.90;;;;;;;5.35;87.44;101113.23;130272;1281;114652;-68
2023/11/18 13:10:45;;;;;;;33.10;20.90;;;;;;;5.39;87.43;101110.17;130010;1262;114781;-79
2023/11/18 13:13:47;;;;;;;26.50;18.40;;;;;;;5.44;87.74;101108.15;129927;1260;114696;-67
2023/11/18 13:16:50;;;;;;;25.80;16.90;;;;;;;5.49;87.79;101107.55;129981;1265;114798;-76
2023/11/18 13:19:54;;;;;;;23.00;15.40;;;;;;;5.53;87.65;101111.20;129912;1260;114701;-68
2023/11/18 13:22:55;;;;;;;23.90;16.90;;;;;;;5.54;86.87;101105.88;129785;1268;128005;-75
2023/11/18 13:25:59;;;;;;;27.10;17.70;;;;;;;5.55;86.90;101102.66;129933;1262;115116;-74
2023/11/18 13:29:02;;;;;;;32.90;22.20;;;;;;;5.55;86.68;101105.66;129880;1269;115190;-78
2023/11/18 13:32:06;;;;;;;29.70;20.60;;;;;;;5.56;86.76;101110.79;129933;1271;114712;-79
2023/11/18 13:35:10;;;;;;;30.50;21.70;;;;;;;5.57;86.53;101112.73;129956;1263;115174;-78
2023/11/18 13:38:14;;;;;;;21.00;14.60;;;;;;;5.58;86.56;101112.36;129885;1281;129202;-78
2023/11/18 13:41:31;;;;;;;28.00;18.80;;;;;;;5.59;86.57;101110.22;129890;1263;114719;-78
2023/11/18 13:44:34;;;;;;;30.80;20.20;;;;;;;5.60;86.67;101110.20;129844;1281;114737;-80
2023/11/18 13:47:36;;;;;;;26.60;19.00;;;;;;;5.64;86.58;101118.83;129932;1262;114810;-77
2023/11/18 13:50:41;;;;;;;30.20;19.80;;;;;;;5.65;86.69;101123.06;129902;1281;115152;-81
2023/11/18 13:53:44;;;;;;;43.30;26.20;;;;;;;5.66;86.54;101121.81;129712;1258;114775;-77
2023/11/18 13:56:46;;;;;;;39.80;25.00;;;;;;;5.64;86.31;101116.34;129836;1262;115268;-76